createdAt,value
2022-10-11T00:01:07.307Z,2.08
2022-10-11T00:03:35.870Z,2.63
2022-10-11T00:06:06.074Z,1.83
2022-10-11T00:08:36.536Z,2.17
2022-10-11T00:11:06.876Z,1.75
2022-10-11T00:13:35.730Z,2.53
2022-10-11T00:16:09.159Z,2.13
2022-10-11T00:18:38.488Z,2.08
2022-10-11T00:21:09.547Z,2.35
2022-10-11T00:23:39.978Z,2.15
2022-10-11T00:26:10.475Z,2.03
2022-10-11T00:28:39.624Z,1.88
2022-10-11T00:31:09.515Z,1.55
2022-10-11T00:33:38.192Z,2.28
2022-10-11T00:36:08.612Z,2.15
2022-10-11T00:38:38.879Z,1.80
2022-10-11T00:41:07.465Z,2.15
2022-10-11T00:43:36.405Z,1.98
2022-10-11T00:46:25.434Z,1.95
2022-10-11T00:49:01.065Z,2.42
2022-10-11T00:51:38.063Z,2.35
2022-10-11T00:54:12.334Z,2.00
2022-10-11T00:56:42.345Z,1.77
2022-10-11T00:59:15.631Z,1.98
2022-10-11T01:01:44.345Z,2.30
2022-10-11T01:04:12.990Z,1.58
2022-10-11T01:06:42.292Z,2.08
2022-10-11T01:09:13.287Z,2.10
2022-10-11T01:11:44.365Z,2.95
2022-10-11T01:14:36.187Z,3.00
2022-10-11T01:17:14.792Z,1.92
2022-10-11T01:20:01.225Z,1.98
2022-10-11T01:22:58.155Z,2.03
2022-10-11T01:25:33.023Z,2.10
2022-10-11T01:28:18.428Z,2.20
2022-10-11T01:30:48.719Z,2.60
2022-10-11T01:33:26.848Z,1.90
2022-10-11T01:36:03.530Z,1.95
2022-10-11T01:38:38.993Z,2.45
2022-10-11T01:41:11.378Z,1.83
2022-10-11T01:43:41.907Z,1.73
2022-10-11T01:46:12.994Z,2.00
2022-10-11T01:48:51.684Z,1.92
2022-10-11T01:51:21.950Z,1.63
2022-10-11T01:54:14.595Z,1.98
2022-10-11T01:57:09.282Z,2.47
2022-10-11T01:59:50.666Z,1.80
2022-10-11T02:02:33.345Z,1.70
2022-10-11T02:05:09.195Z,2.00
2022-10-11T02:07:45.397Z,1.88
2022-10-11T02:10:22.337Z,1.95
2022-10-11T02:12:57.831Z,1.83
2022-10-11T02:15:29.509Z,2.03
2022-10-11T02:18:03.675Z,2.15
2022-10-11T02:20:35.286Z,1.98
2022-10-11T02:23:09.851Z,1.85
2022-10-11T02:25:38.927Z,1.83
2022-10-11T02:28:11.582Z,1.67
2022-10-11T02:30:42.674Z,1.83
2022-10-11T02:33:15.314Z,1.60
2022-10-11T02:35:48.174Z,2.00
2022-10-11T02:38:22.241Z,1.80
2022-10-11T02:40:57.669Z,1.88
2022-10-11T02:43:31.589Z,2.25
2022-10-11T02:46:02.355Z,2.28
2022-10-11T02:48:35.580Z,1.90
2022-10-11T02:51:05.066Z,2.13
2022-10-11T02:53:34.559Z,1.98
2022-10-11T02:56:03.342Z,1.77
2022-10-11T02:58:32.020Z,1.95
2022-10-11T03:01:00.490Z,1.83
2022-10-11T03:03:29.054Z,2.20
2022-10-11T03:06:01.428Z,1.98
2022-10-11T03:08:30.216Z,1.95
2022-10-11T03:10:58.732Z,2.00
2022-10-11T03:13:27.492Z,1.70
2022-10-11T03:16:03.161Z,1.92
2022-10-11T03:18:32.393Z,2.30
2022-10-11T03:21:02.210Z,1.95
2022-10-11T03:23:30.693Z,1.50
2022-10-11T03:25:59.314Z,2.10
2022-10-11T03:28:28.201Z,1.55
2022-10-11T03:30:56.789Z,2.08
2022-10-11T03:33:25.301Z,1.90
2022-10-11T03:35:53.788Z,1.80
2022-10-11T03:38:23.930Z,2.22
2022-10-11T03:40:52.694Z,1.70
2022-10-11T03:43:21.212Z,2.42
2022-10-11T03:45:49.903Z,2.17
2022-10-11T03:48:18.378Z,2.72
2022-10-11T03:50:46.953Z,2.28
2022-10-11T03:53:15.559Z,2.38
2022-10-11T03:55:45.407Z,1.73
2022-10-11T03:58:13.934Z,1.70
2022-10-11T04:00:42.429Z,2.67
2022-10-11T04:03:10.997Z,2.42
2022-10-11T04:05:39.485Z,2.10
2022-10-11T04:08:11.953Z,2.30
2022-10-11T04:10:41.275Z,2.92
2022-10-11T04:13:12.104Z,2.50
2022-10-11T04:15:41.541Z,2.45
2022-10-11T04:18:10.542Z,2.78
2022-10-11T04:20:39.108Z,2.22
2022-10-11T04:23:07.657Z,2.70
2022-10-11T04:25:36.163Z,2.65
2022-10-11T04:28:04.757Z,3.05
2022-10-11T04:30:34.817Z,2.55
2022-10-11T04:33:03.511Z,2.45
2022-10-11T04:35:32.238Z,3.50
2022-10-11T04:38:00.757Z,3.00
2022-10-11T04:40:29.311Z,4.15
2022-10-11T04:42:57.757Z,4.80
2022-10-11T04:45:26.307Z,4.82
2022-10-11T04:47:56.143Z,5.32
2022-10-11T04:50:24.660Z,5.22
2022-10-11T04:52:58.920Z,5.53
2022-10-11T04:55:27.609Z,5.03
2022-10-11T04:57:56.182Z,6.15
2022-10-11T05:00:24.650Z,6.95
2022-10-11T05:02:53.850Z,8.55
2022-10-11T05:05:23.805Z,8.20
2022-10-11T05:07:52.316Z,8.82
2022-10-11T05:10:20.982Z,8.73
2022-10-11T05:12:49.465Z,8.35
2022-10-11T05:15:17.975Z,7.88
2022-10-11T05:17:46.437Z,7.88
2022-10-11T05:20:14.936Z,8.95
2022-10-11T05:22:44.725Z,8.73
2022-10-11T05:25:13.388Z,9.48
2022-10-11T05:27:41.857Z,8.35
2022-10-11T05:30:11.180Z,9.60
2022-10-11T05:32:39.893Z,8.57
2022-10-11T05:35:09.252Z,8.13
2022-10-11T05:37:47.971Z,8.32
2022-10-11T05:40:18.097Z,8.68
2022-10-11T05:42:46.626Z,10.00
2022-10-11T05:45:16.383Z,9.52
2022-10-11T05:47:49.371Z,11.25
2022-10-11T05:50:23.313Z,9.00
2022-10-11T05:52:52.738Z,8.48
2022-10-11T05:55:22.563Z,9.65
2022-10-11T05:57:53.858Z,9.93
2022-10-11T06:00:22.711Z,10.00
2022-10-11T06:02:51.526Z,11.20
2022-10-11T06:05:20.153Z,11.45
2022-10-11T06:07:48.616Z,10.77
2022-10-11T06:10:17.364Z,9.90
2022-10-11T06:12:47.224Z,9.48
2022-10-11T06:15:15.826Z,10.85
2022-10-11T06:17:44.284Z,11.23
2022-10-11T06:20:13.027Z,13.15
2022-10-11T06:22:41.605Z,12.43
2022-10-11T06:25:10.885Z,14.63
2022-10-11T06:27:39.407Z,12.00
2022-10-11T06:30:10.545Z,12.55
2022-10-11T06:32:39.081Z,14.10
2022-10-11T06:35:08.858Z,13.50
2022-10-11T06:37:37.490Z,13.68
2022-10-11T06:40:06.894Z,13.70
2022-10-11T06:42:35.411Z,14.52
2022-10-11T06:45:04.127Z,14.00
2022-10-11T06:47:33.982Z,14.25
2022-10-11T06:50:02.530Z,12.98
2022-10-11T06:52:31.117Z,14.02
2022-10-11T06:54:59.608Z,13.45
2022-10-11T06:57:29.217Z,13.88
2022-10-11T06:59:58.204Z,15.30
2022-10-11T07:02:26.754Z,15.73
2022-10-11T07:04:56.604Z,15.95
2022-10-11T07:07:25.208Z,17.02
2022-10-11T07:09:53.726Z,16.85
2022-10-11T07:12:22.294Z,17.70
2022-10-11T07:14:50.912Z,19.02
2022-10-11T07:17:19.568Z,17.63
2022-10-11T07:19:48.618Z,16.73
2022-10-11T07:22:18.557Z,17.55
2022-10-11T07:24:49.096Z,16.20
2022-10-11T07:27:17.557Z,16.27
2022-10-11T07:29:46.133Z,14.90
2022-10-11T07:32:16.351Z,15.85
2022-10-11T07:34:45.105Z,16.45
2022-10-11T07:37:13.817Z,15.93
2022-10-11T07:39:43.744Z,14.52
2022-10-11T07:42:12.291Z,16.20
2022-10-11T07:44:40.890Z,17.33
2022-10-11T07:47:11.358Z,15.88
2022-10-11T07:49:40.224Z,15.60
2022-10-11T07:52:08.785Z,16.02
2022-10-11T07:54:37.834Z,15.32
2022-10-11T07:57:07.709Z,15.52
2022-10-11T07:59:36.253Z,16.40
2022-10-11T08:02:04.696Z,16.02
2022-10-11T08:04:34.809Z,15.20
2022-10-11T08:07:03.264Z,15.75
2022-10-11T08:09:31.916Z,17.25
2022-10-11T08:12:00.399Z,16.35
2022-10-11T08:14:30.310Z,17.05
2022-10-11T08:17:00.249Z,17.02
2022-10-11T08:19:28.890Z,17.10
2022-10-11T08:21:57.420Z,15.57
2022-10-11T08:24:25.985Z,18.00
2022-10-11T08:26:54.534Z,19.52
2022-10-11T08:29:23.381Z,19.45
2022-10-11T08:31:53.208Z,19.77
2022-10-11T08:34:21.826Z,17.23
2022-10-11T08:36:50.307Z,18.08
2022-10-11T08:39:18.974Z,16.75
2022-10-11T08:41:52.335Z,16.85
2022-10-11T08:47:36.146Z,15.18
2022-10-11T08:50:07.983Z,15.50
2022-10-11T08:52:46.018Z,16.65
2022-10-11T08:55:20.933Z,15.80
2022-10-11T08:57:56.403Z,15.13
2022-10-11T09:00:29.278Z,17.38
2022-10-11T09:03:11.908Z,16.20
2022-10-11T09:05:54.515Z,17.02
2022-10-11T09:08:31.424Z,17.85
2022-10-11T09:11:06.172Z,17.75
2022-10-11T09:13:55.791Z,16.13
2022-10-11T09:16:35.768Z,16.63
2022-10-11T09:19:24.105Z,16.23
2022-10-11T09:22:00.449Z,16.00
2022-10-11T09:24:38.095Z,15.30
2022-10-11T09:27:14.302Z,16.05
2022-10-11T09:29:55.205Z,14.45
2022-10-11T09:32:29.773Z,13.60
2022-10-11T09:35:09.586Z,13.20
2022-10-11T09:37:46.454Z,13.32
2022-10-11T09:40:28.888Z,13.13
2022-10-11T09:42:59.389Z,12.68
2022-10-11T09:45:28.149Z,13.63
2022-10-11T09:47:58.689Z,12.48
2022-10-11T09:50:30.612Z,12.95
2022-10-11T09:53:00.792Z,12.40
2022-10-11T09:55:34.834Z,11.77
2022-10-11T09:58:04.656Z,10.95
2022-10-11T10:00:34.485Z,12.27
2022-10-11T10:03:04.864Z,11.10
2022-10-11T10:05:37.457Z,10.80
2022-10-11T10:08:25.092Z,10.05
2022-10-11T10:11:01.908Z,10.63
2022-10-11T10:13:41.225Z,9.50
2022-10-11T10:16:21.454Z,9.48
2022-10-11T10:18:53.371Z,9.27
2022-10-11T10:21:29.455Z,9.55
2022-10-11T10:24:00.110Z,8.38
2022-10-11T10:26:28.721Z,9.38
2022-10-11T10:29:05.109Z,9.43
2022-10-11T10:32:09.242Z,9.25
2022-10-11T10:34:30.823Z,8.57
2022-10-11T10:37:07.504Z,8.50
2022-10-11T10:39:42.764Z,7.57
2022-10-11T10:42:16.434Z,7.25
2022-10-11T10:44:45.986Z,8.40
2022-10-11T10:47:22.421Z,7.55
2022-10-11T10:49:58.216Z,7.38
2022-10-11T10:52:57.909Z,7.65
2022-10-11T10:55:33.414Z,7.50
2022-10-11T10:58:26.440Z,7.45
2022-10-11T11:01:00.699Z,7.80
2022-10-11T11:03:35.241Z,7.47
2022-10-11T11:06:06.666Z,7.13
2022-10-11T11:08:56.577Z,7.57
2022-10-11T11:11:39.098Z,6.85
2022-10-11T11:14:20.110Z,7.30
2022-10-11T11:16:56.862Z,7.22
2022-10-11T11:19:39.074Z,7.53
2022-10-11T11:22:16.616Z,8.63
2022-10-11T11:24:57.053Z,8.98
2022-10-11T11:27:39.890Z,7.05
2022-10-11T11:30:13.113Z,7.65
2022-10-11T11:32:53.170Z,6.10
2022-10-11T11:35:28.925Z,6.38
2022-10-11T11:38:06.363Z,7.15
2022-10-11T11:40:40.489Z,4.93
2022-10-11T11:43:20.545Z,4.85
2022-10-11T11:45:52.273Z,4.60
2022-10-11T11:48:24.628Z,5.43
2022-10-11T11:51:01.462Z,5.50
2022-10-11T11:53:45.761Z,5.50
2022-10-11T11:56:26.253Z,4.35
2022-10-11T11:59:03.063Z,6.28
2022-10-11T12:01:39.471Z,6.10
2022-10-11T12:04:16.892Z,5.95
2022-10-11T12:07:11.248Z,4.80
2022-10-11T12:09:35.855Z,5.10
2022-10-11T12:12:08.058Z,4.70
2022-10-11T12:14:39.629Z,3.70
2022-10-11T12:17:15.676Z,4.18
2022-10-11T12:20:00.332Z,3.47
2022-10-11T12:22:51.466Z,3.38
2022-10-11T12:25:43.298Z,4.25
2022-10-11T12:29:00.442Z,4.10
2022-10-11T12:31:31.157Z,2.97
2022-10-11T12:34:35.325Z,2.80
2022-10-11T12:37:42.305Z,2.90
2022-10-11T12:40:43.081Z,2.90
2022-10-11T12:43:32.974Z,1.90
2022-10-11T12:46:39.569Z,2.17
2022-10-11T12:49:32.507Z,2.13
2022-10-11T12:52:02.761Z,2.33
2022-10-11T12:54:50.770Z,3.03
2022-10-11T12:57:52.703Z,3.08
2022-10-11T13:00:27.887Z,2.92
2022-10-11T13:02:59.238Z,2.53
2022-10-11T13:05:31.884Z,2.17
2022-10-11T13:08:05.042Z,2.10
2022-10-11T13:10:39.163Z,2.60
2022-10-11T13:13:19.378Z,2.40
2022-10-11T13:15:48.165Z,2.05
2022-10-11T13:18:18.766Z,2.42
2022-10-11T13:20:47.274Z,2.95
2022-10-11T13:23:23.528Z,2.53
2022-10-11T13:25:52.885Z,2.63
2022-10-11T13:28:22.846Z,2.00
2022-10-11T13:30:54.404Z,2.38
2022-10-11T13:33:27.669Z,2.30
2022-10-11T13:35:56.234Z,1.92
2022-10-11T13:38:28.643Z,1.50
2022-10-11T13:40:58.337Z,2.13
2022-10-11T13:43:29.673Z,1.58
2022-10-11T13:46:05.063Z,1.67
2022-10-11T13:48:40.846Z,2.45
2022-10-11T13:51:13.553Z,2.08
2022-10-11T13:53:58.544Z,1.90
2022-10-11T13:56:28.516Z,1.88
2022-10-11T13:58:57.600Z,2.00
2022-10-11T14:01:28.968Z,2.20
2022-10-11T14:04:01.802Z,1.92
2022-10-11T14:06:44.417Z,2.28
2022-10-11T14:09:22.438Z,2.13
2022-10-11T14:11:51.490Z,1.95
2022-10-11T14:14:31.270Z,2.47
2022-10-11T14:17:07.793Z,4.00
2022-10-11T14:19:37.946Z,13.35
2022-10-11T14:22:07.562Z,4.82
2022-10-11T14:24:36.330Z,2.40
2022-10-11T14:27:07.377Z,1.83
2022-10-11T14:29:38.862Z,1.95
2022-10-11T14:32:09.125Z,2.30
2022-10-11T14:34:39.333Z,1.60
2022-10-11T14:37:07.812Z,2.10
2022-10-11T14:39:36.851Z,1.85
2022-10-11T14:42:05.785Z,1.85
2022-10-11T14:44:34.593Z,2.03
2022-10-11T14:47:06.538Z,2.05
2022-10-11T14:49:36.889Z,2.05
2022-10-11T14:52:08.203Z,1.60
2022-10-11T14:54:36.805Z,2.15
2022-10-11T14:57:05.987Z,1.70
2022-10-11T14:59:37.731Z,1.58
2022-10-11T15:02:07.844Z,1.65
2022-10-11T15:04:36.645Z,2.05
2022-10-11T15:07:06.520Z,1.60
2022-10-11T15:09:35.043Z,1.58
2022-10-11T15:12:03.516Z,1.80
2022-10-11T15:14:32.140Z,1.58
2022-10-11T15:17:00.570Z,1.65
2022-10-11T15:19:29.162Z,1.30
2022-10-11T15:21:57.665Z,1.33
2022-10-11T15:24:27.909Z,1.92
2022-10-11T15:26:56.391Z,2.15
2022-10-11T15:29:24.946Z,1.90
2022-10-11T15:31:53.470Z,2.10
2022-10-11T15:34:21.951Z,2.22
2022-10-11T15:36:51.187Z,2.17
2022-10-11T15:39:25.966Z,1.70
2022-10-11T15:41:55.929Z,2.08
2022-10-11T15:44:24.602Z,2.30
2022-10-11T15:46:53.633Z,1.65
2022-10-11T15:49:22.148Z,1.60
2022-10-11T15:51:50.715Z,2.80
2022-10-11T15:54:19.173Z,2.10
2022-10-11T15:56:47.710Z,2.22
2022-10-11T15:59:17.700Z,1.92
2022-10-11T16:01:46.844Z,2.20
2022-10-11T16:04:15.364Z,1.70
2022-10-11T16:06:43.880Z,2.00
2022-10-11T16:09:12.401Z,3.20
2022-10-11T16:11:41.142Z,2.10
2022-10-11T16:14:09.708Z,2.33
2022-10-11T16:16:39.734Z,1.70
2022-10-11T16:19:08.194Z,1.75
2022-10-11T16:21:36.730Z,2.30
2022-10-11T16:24:05.576Z,2.03
2022-10-11T16:26:34.014Z,2.20
2022-10-11T16:29:02.526Z,2.63
2022-10-11T16:31:31.005Z,2.65
2022-10-11T16:34:00.962Z,2.78
2022-10-11T16:36:40.555Z,2.58
2022-10-11T16:39:14.376Z,2.10
2022-10-11T16:41:43.636Z,2.15
2022-10-11T16:44:14.829Z,1.98
2022-10-11T16:46:47.666Z,2.15
2022-10-11T16:49:19.591Z,2.35
2022-10-11T16:51:48.252Z,1.83
2022-10-11T16:54:20.518Z,2.50
2022-10-11T16:56:50.020Z,2.15
2022-10-11T16:59:18.781Z,2.35
2022-10-11T17:01:47.374Z,2.28
2022-10-11T17:04:17.485Z,2.40
2022-10-11T17:06:46.149Z,2.50
2022-10-11T17:09:15.793Z,3.15
2022-10-11T17:11:44.790Z,3.72
2022-10-11T17:14:14.207Z,4.63
2022-10-11T17:16:42.905Z,4.45
2022-10-11T17:19:12.662Z,4.72
2022-10-11T17:21:43.499Z,3.92
2022-10-11T17:24:12.061Z,4.03
2022-10-11T17:26:40.555Z,4.35
2022-10-11T17:29:13.983Z,4.45
2022-10-11T17:31:48.071Z,4.50
2022-10-11T17:34:18.075Z,4.68
2022-10-11T17:36:48.582Z,4.40
2022-10-11T17:39:20.725Z,5.57
2022-10-11T17:41:49.589Z,5.63
2022-10-11T17:44:18.803Z,4.82
2022-10-11T17:46:48.157Z,5.57
2022-10-11T17:49:17.559Z,4.88
2022-10-11T17:51:47.455Z,4.40
2022-10-11T17:54:16.714Z,4.65
2022-10-11T17:56:45.293Z,4.05
2022-10-11T17:59:17.693Z,4.40
2022-10-11T18:01:46.360Z,4.10
2022-10-11T18:04:17.289Z,4.38
2022-10-11T18:06:49.127Z,4.25
2022-10-11T18:09:19.649Z,4.32
2022-10-11T18:11:48.757Z,4.95
2022-10-11T18:14:17.453Z,4.47
2022-10-11T18:16:46.040Z,4.43
2022-10-11T18:19:15.538Z,4.15
2022-10-11T18:21:44.274Z,4.65
2022-10-11T18:24:16.297Z,3.85
2022-10-11T18:26:45.894Z,4.45
2022-10-11T18:29:15.197Z,4.65
2022-10-11T18:31:43.856Z,4.40
2022-10-11T18:34:14.760Z,4.30
2022-10-11T18:36:43.549Z,5.05
2022-10-11T18:39:16.171Z,4.82
2022-10-11T18:41:45.211Z,5.10
2022-10-11T18:44:15.995Z,5.72
2022-10-11T18:46:45.304Z,5.00
2022-10-11T18:49:14.401Z,5.15
2022-10-11T18:51:43.812Z,4.82
2022-10-11T18:54:16.716Z,4.47
2022-10-11T18:56:50.141Z,4.93
2022-10-11T18:59:19.927Z,5.75
2022-10-11T19:01:51.958Z,5.28
2022-10-11T19:04:21.160Z,4.93
2022-10-11T19:06:50.495Z,5.35
2022-10-11T19:09:22.373Z,4.60
2022-10-11T19:11:53.602Z,4.95
2022-10-11T19:14:25.561Z,4.25
2022-10-11T19:16:54.720Z,5.03
2022-10-11T19:19:26.457Z,4.88
2022-10-11T19:21:55.341Z,4.20
2022-10-11T19:24:26.754Z,4.50
2022-10-11T19:27:01.995Z,3.95
2022-10-11T19:29:32.403Z,4.00
2022-10-11T19:32:03.015Z,4.32
2022-10-11T19:34:32.665Z,4.47
2022-10-11T19:37:03.365Z,3.35
2022-10-11T19:39:32.162Z,3.75
2022-10-11T19:42:02.498Z,3.75
2022-10-11T19:44:34.463Z,4.70
2022-10-11T19:47:06.245Z,4.10
2022-10-11T19:49:34.920Z,4.28
2022-10-11T19:52:03.898Z,4.30
2022-10-11T19:54:32.991Z,4.38
2022-10-11T19:57:02.984Z,4.15
2022-10-11T19:59:31.741Z,3.97
2022-10-11T20:02:00.531Z,3.90
2022-10-11T20:07:18.584Z,3.50
2022-10-11T20:09:47.281Z,4.00
2022-10-11T20:12:17.167Z,3.95
2022-10-11T20:14:45.715Z,4.43
2022-10-11T20:17:14.306Z,4.15
2022-10-11T20:19:42.862Z,4.45
2022-10-11T20:22:11.426Z,5.00
2022-10-11T20:24:39.979Z,5.05
2022-10-11T20:27:08.582Z,4.55
2022-10-11T20:29:38.629Z,4.25
2022-10-11T20:32:08.492Z,4.75
2022-10-11T20:34:39.402Z,4.30
2022-10-11T20:37:07.857Z,4.70
2022-10-11T20:39:36.614Z,3.92
2022-10-11T20:42:05.237Z,4.60
2022-10-11T20:44:33.977Z,4.55
2022-10-11T20:47:04.406Z,4.50
2022-10-11T20:49:33.210Z,4.32
2022-10-11T20:52:01.742Z,3.70
2022-10-11T20:54:34.100Z,3.47
2022-10-11T20:57:02.966Z,4.28
2022-10-11T20:59:31.479Z,5.60
2022-10-11T21:01:59.952Z,4.50
2022-10-11T21:04:30.300Z,4.03
2022-10-11T21:06:58.900Z,4.63
2022-10-11T21:09:27.373Z,4.57
2022-10-11T21:11:55.912Z,5.38
2022-10-11T21:14:24.508Z,4.95
2022-10-11T21:16:53.200Z,5.38
2022-10-11T21:19:21.722Z,5.10
2022-10-11T21:21:53.869Z,5.28
2022-10-11T21:24:22.654Z,6.25
2022-10-11T21:26:51.314Z,5.22
2022-10-11T21:29:19.987Z,5.90
2022-10-11T21:31:48.432Z,5.35
2022-10-11T21:34:17.209Z,5.32
2022-10-11T21:36:45.669Z,4.95
2022-10-11T21:39:16.252Z,4.22
2022-10-11T21:41:44.829Z,5.00
2022-10-11T21:44:13.435Z,4.35
2022-10-11T21:49:30.983Z,4.57
2022-10-11T21:51:59.943Z,4.90
2022-10-11T21:54:29.834Z,4.40
2022-10-11T21:56:58.538Z,4.45
2022-10-11T21:59:27.107Z,4.55
2022-10-11T22:02:00.767Z,5.20
2022-10-11T22:04:30.411Z,4.80
2022-10-11T22:06:59.098Z,4.97
2022-10-11T22:09:29.903Z,4.75
2022-10-11T22:11:58.465Z,4.82
2022-10-11T22:14:27.399Z,5.07
2022-10-11T22:16:56.440Z,5.25
2022-10-11T22:19:25.428Z,5.93
2022-10-11T22:21:54.223Z,5.88
2022-10-11T22:24:22.841Z,6.10
2022-10-11T22:26:52.760Z,5.80
2022-10-11T22:29:21.364Z,6.07
2022-10-11T22:31:49.845Z,5.82
2022-10-11T22:34:18.385Z,4.93
2022-10-11T22:36:47.554Z,5.40
2022-10-11T22:39:16.060Z,5.00
2022-10-11T22:41:44.549Z,5.28
2022-10-11T22:44:14.688Z,4.93
2022-10-11T22:46:43.189Z,4.40
2022-10-11T22:49:11.642Z,5.32
2022-10-11T22:51:40.137Z,4.93
2022-10-11T22:54:08.646Z,5.00
2022-10-11T22:56:37.203Z,5.70
2022-10-11T22:59:05.922Z,5.20
2022-10-11T23:01:35.795Z,5.40
2022-10-11T23:04:04.475Z,4.78
2022-10-11T23:06:33.022Z,4.50
2022-10-11T23:09:01.715Z,4.85
2022-10-11T23:11:30.622Z,4.43
2022-10-11T23:13:59.036Z,4.53
2022-10-11T23:16:27.553Z,4.47
2022-10-11T23:18:57.385Z,3.88
2022-10-11T23:21:26.078Z,4.50
2022-10-11T23:23:55.351Z,4.20
2022-10-11T23:26:23.840Z,3.85
2022-10-11T23:28:55.244Z,4.13
2022-10-11T23:31:23.765Z,4.20
2022-10-11T23:33:52.261Z,3.65
2022-10-11T23:36:24.477Z,4.00
2022-10-11T23:38:54.260Z,4.55
2022-10-11T23:41:23.341Z,4.53
2022-10-11T23:43:52.207Z,4.13
2022-10-11T23:46:21.102Z,4.35
2022-10-11T23:48:49.972Z,3.92
2022-10-11T23:51:18.465Z,4.68
2022-10-11T23:53:48.422Z,4.25
2022-10-11T23:56:17.040Z,4.00
2022-10-11T23:58:45.605Z,3.65
